WZZ50ML EBCI-LEAL
Flight info
| Callsign | WZZ50ML |
|---|---|
| Flight time | N/A |
| Altitude | 31000 |
| Route | CIV N872 LESDO DCT KOVIN DCT DUCRA UM728 RESMI UN857 DISAK/N0429F330 DCT DIRMO/N0446F370 DCT GUERE DCT AGN DCT ANETO DCT POSSY DCT XIMPE DCT RIMES DCT SAURA DCT TATOS DCT PLANA DCT VLC |
| Aircraft | A320/M-SDE3FGHIRWY/LB1 |
Departure
| Time | 2026-05-06 16:40 |
|---|---|
| Airport | Brussels South Charleroi Airport (EBCI) |
Arrival
| Time | N/A |
|---|---|
| Airport | Alicante-Elche Miguel Hernández Airport (LEAL) |
| Time | Latitude | Longitude | Altitude | Speed | Heading |
|---|---|---|---|---|---|
| 2026-05-06 16:23 | 50.46957 | 4.47400 | 578 ft | 0 kts | 334° |
| 2026-05-06 16:31 | 50.46946 | 4.47409 | 580 ft | 3 kts | 334° |
| 2026-05-06 16:31 | 50.46930 | 4.47421 | 580 ft | 3 kts | 334° |
| 2026-05-06 16:32 | 50.46914 | 4.47433 | 581 ft | 3 kts | 341° |
| 2026-05-06 16:32 | 50.46897 | 4.47441 | 578 ft | 2 kts | 357° |
| 2026-05-06 16:32 | 50.46880 | 4.47441 | 578 ft | 3 kts | 17° |
| 2026-05-06 16:32 | 50.46864 | 4.47429 | 578 ft | 3 kts | 53° |
| 2026-05-06 16:33 | 50.46861 | 4.47421 | 578 ft | 0 kts | 61° |
| 2026-05-06 16:35 | 50.46861 | 4.47422 | 578 ft | 1 kts | 61° |
| 2026-05-06 16:36 | 50.46876 | 4.47470 | 581 ft | 8 kts | 66° |
| 2026-05-06 16:36 | 50.46901 | 4.47558 | 582 ft | 10 kts | 68° |
| 2026-05-06 16:36 | 50.46870 | 4.47638 | 578 ft | 8 kts | 153° |
| 2026-05-06 16:36 | 50.46841 | 4.47658 | 578 ft | 0 kts | 156° |
| 2026-05-06 16:38 | 50.46822 | 4.47671 | 580 ft | 4 kts | 156° |
| 2026-05-06 16:38 | 50.46785 | 4.47697 | 579 ft | 9 kts | 156° |
| 2026-05-06 16:38 | 50.46720 | 4.47721 | 581 ft | 10 kts | 187° |
| 2026-05-06 16:38 | 50.46677 | 4.47665 | 578 ft | 7 kts | 242° |
| 2026-05-06 16:39 | 50.46619 | 4.47459 | 581 ft | 47 kts | 245° |
| 2026-05-06 16:39 | 50.46397 | 4.46689 | 580 ft | 106 kts | 245° |
| 2026-05-06 16:39 | 50.46024 | 4.45404 | 596 ft | 150 kts | 246° |
| 2026-05-06 16:39 | 50.45556 | 4.43805 | 988 ft | 160 kts | 244° |
| 2026-05-06 16:40 | 50.45050 | 4.42271 | 1724 ft | 157 kts | 247° |
| 2026-05-06 16:40 | 50.44590 | 4.40702 | 2285 ft | 160 kts | 250° |
| 2026-05-06 16:40 | 50.44128 | 4.39021 | 2626 ft | 179 kts | 250° |
| 2026-05-06 16:40 | 50.43605 | 4.37119 | 2935 ft | 201 kts | 249° |
| 2026-05-06 16:41 | 50.43015 | 4.34994 | 3200 ft | 223 kts | 248° |
| 2026-05-06 16:41 | 50.42363 | 4.32677 | 3542 ft | 243 kts | 248° |
| 2026-05-06 16:41 | 50.41641 | 4.30125 | 3967 ft | 266 kts | 248° |
| 2026-05-06 16:41 | 50.40981 | 4.27377 | 4767 ft | 272 kts | 262° |
| 2026-05-06 16:42 | 50.41082 | 4.24443 | 5620 ft | 272 kts | 290° |
| 2026-05-06 16:42 | 50.41960 | 4.21831 | 6482 ft | 273 kts | 304° |
| 2026-05-06 16:42 | 50.42973 | 4.19332 | 7295 ft | 277 kts | 304° |
| 2026-05-06 16:42 | 50.44014 | 4.16772 | 8113 ft | 281 kts | 304° |
| 2026-05-06 16:43 | 50.45082 | 4.14130 | 8956 ft | 284 kts | 303° |
| 2026-05-06 16:43 | 50.46131 | 4.11526 | 9754 ft | 288 kts | 303° |
| 2026-05-06 16:43 | 50.47220 | 4.08817 | 10264 ft | 303 kts | 303° |
| 2026-05-06 16:43 | 50.48383 | 4.05916 | 10483 ft | 325 kts | 303° |
| 2026-05-06 16:44 | 50.49626 | 4.02805 | 10975 ft | 336 kts | 303° |
| 2026-05-06 16:44 | 50.50794 | 3.99603 | 11643 ft | 342 kts | 294° |
| 2026-05-06 16:44 | 50.51334 | 3.96002 | 12284 ft | 348 kts | 273° |
| 2026-05-06 16:44 | 50.51017 | 3.92220 | 12952 ft | 354 kts | 251° |
| 2026-05-06 16:45 | 50.49826 | 3.88833 | 13618 ft | 359 kts | 230° |
| 2026-05-06 16:45 | 50.48004 | 3.86135 | 14237 ft | 361 kts | 220° |
| 2026-05-06 16:45 | 50.46099 | 3.83554 | 14893 ft | 362 kts | 220° |
| 2026-05-06 16:45 | 50.44181 | 3.80976 | 15582 ft | 363 kts | 219° |
| 2026-05-06 16:46 | 50.42266 | 3.78401 | 16254 ft | 363 kts | 219° |
| 2026-05-06 16:46 | 50.40350 | 3.75814 | 16948 ft | 364 kts | 219° |
| 2026-05-06 16:46 | 50.38434 | 3.73220 | 17601 ft | 365 kts | 219° |
| 2026-05-06 16:46 | 50.36506 | 3.70608 | 18229 ft | 367 kts | 219° |
| 2026-05-06 16:47 | 50.34512 | 3.68103 | 18711 ft | 369 kts | 213° |
| 2026-05-06 16:47 | 50.32267 | 3.66166 | 19029 ft | 370 kts | 202° |
| 2026-05-06 16:47 | 50.29885 | 3.64586 | 19583 ft | 373 kts | 202° |
| 2026-05-06 16:47 | 50.27493 | 3.62988 | 20111 ft | 376 kts | 202° |
| 2026-05-06 16:48 | 50.25083 | 3.61367 | 20620 ft | 379 kts | 202° |
| 2026-05-06 16:48 | 50.22653 | 3.59723 | 21090 ft | 382 kts | 202° |
| 2026-05-06 16:48 | 50.20204 | 3.58065 | 21554 ft | 385 kts | 202° |